Latest Weather Observations for Ocean Reef

IDW60801

Issued at 5:03 am WST Wednesday 24 August 2016 (issued every 30 minutes, with the page automatically refreshed every 10 minutes)

About weather observations | Map of weather stations | Latest weather observations for WA | Other Formats
Station Details ID: 009214 Name: OCEAN REEF Lat: -31.76 Lon: 115.73 Height: 10.0 m
Data from the previous 72 hours. | See also: Recent months at Ocean Reef
Date/Time
WST
Temp
°C
App
Temp
°C
Dew
Point
°C
Rel
Hum
%
Delta-T
°C
Wind Press
QNH
hPa
Press
MSL
hPa
Rain since
9am
mm
Dir  Spd
km/h
Gust
km/h
Spd
kts
Gust
kts
24/05:00am - - - - - E 15 19 8 10 - - -
24/04:30am - - - - - E 15 19 8 10 - - -
24/04:00am - - - - - E 15 19 8 10 - - -
24/03:30am - - - - - ENE 15 19 8 10 - - -
24/03:00am - - - - - E 13 19 7 10 - - -
24/02:30am - - - - - E 15 19 8 10 - - -
24/02:00am - - - - - E 13 19 7 10 - - -
24/01:30am - - - - - E 15 19 8 10 - - -
24/01:00am - - - - - E 13 17 7 9 - - -
24/12:30am - - - - - E 13 17 7 9 - - -
24/12:00am - - - - - E 13 15 7 8 - - -
 
Date/Time
WST
Temp
°C
App
Temp
°C
Dew
Point
°C
Rel
Hum
%
Delta-T
°C
Wind Press
QNH
hPa
Press
MSL
hPa
Rain since
9am
mm
Dir  Spd
km/h
Gust
km/h
Spd
kts
Gust
kts
23/11:30pm - - - - - E 13 15 7 8 - - -
23/11:00pm - - - - - ENE 13 17 7 9 - - -
23/10:30pm - - - - - E 13 17 7 9 - - -
23/10:00pm - - - - - ENE 13 15 7 8 - - -
23/09:30pm - - - - - E 13 15 7 8 - - -
23/09:00pm - - - - - E 13 13 7 7 - - -
23/08:30pm - - - - - ENE 13 13 7 7 - - -
23/08:00pm - - - - - ENE 11 13 6 7 - - -
23/07:30pm - - - - - ENE 11 13 6 7 - - -
23/07:00pm - - - - - ENE 11 13 6 7 - - -
23/06:30pm - - - - - ENE 9 13 5 7 - - -
23/06:00pm - - - - - ENE 11 13 6 7 - - -
23/05:30pm - - - - - ESE 7 9 4 5 - - -
23/05:00pm - - - - - SSW 17 22 9 12 - - -
23/04:30pm - - - - - SSW 22 28 12 15 - - -
23/04:00pm - - - - - SW 19 22 10 12 - - -
23/03:30pm - - - - - SW 20 26 11 14 - - -
23/03:00pm - - - - - SW 19 22 10 12 - - -
23/02:30pm - - - - - SW 20 26 11 14 - - -
23/02:00pm - - - - - SSW 17 19 9 10 - - -
23/01:30pm - - - - - S 13 19 7 10 - - -
23/01:00pm - - - - - SE 15 22 8 12 - - -
23/12:30pm - - - - - E 15 24 8 13 - - -
23/12:00pm - - - - - ESE 19 26 10 14 - - -
23/11:30am - - - - - SE 22 32 12 17 - - -
23/11:00am - - - - - ESE 19 30 10 16 - - -
23/10:30am - - - - - ESE 19 30 10 16 - - -
23/10:00am - - - - - ESE 17 28 9 15 - - -
23/09:30am - - - - - ESE 13 20 7 11 - - -
23/09:00am - - - - - E 15 20 8 11 - - -
23/08:30am - - - - - E 11 17 6 9 - - -
23/08:00am - - - - - E 15 19 8 10 - - -
23/07:30am - - - - - E 15 19 8 10 - - -
23/07:00am - - - - - ENE 13 15 7 8 - - -
23/06:30am - - - - - ENE 13 15 7 8 - - -
23/06:00am - - - - - ENE 13 15 7 8 - - -
23/05:30am - - - - - E 11 13 6 7 - - -
23/05:00am - - - - - ENE 13 17 7 9 - - -
23/04:30am - - - - - ENE 15 19 8 10 - - -
23/04:00am - - - - - ENE 15 17 8 9 - - -
23/03:30am - - - - - ENE 13 17 7 9 - - -
23/03:00am - - - - - E 13 17 7 9 - - -
23/02:30am - - - - - ENE 13 15 7 8 - - -
23/02:00am - - - - - E 13 17 7 9 - - -
23/01:30am - - - - - E 15 17 8 9 - - -
23/01:00am - - - - - E 13 15 7 8 - - -
23/12:30am - - - - - E 15 17 8 9 - - -
23/12:00am - - - - - ESE 11 11 6 6 - - -
 
Date/Time
WST
Temp
°C
App
Temp
°C
Dew
Point
°C
Rel
Hum
%
Delta-T
°C
Wind Press
QNH
hPa
Press
MSL
hPa
Rain since
9am
mm
Dir  Spd
km/h
Gust
km/h
Spd
kts
Gust
kts
22/11:30pm - - - - - ESE 13 15 7 8 - - -
22/11:00pm - - - - - SE 13 17 7 9 - - -
22/10:30pm - - - - - SE 17 20 9 11 - - -
22/10:00pm - - - - - SE 15 19 8 10 - - -
22/09:30pm - - - - - SE 17 20 9 11 - - -
22/09:00pm - - - - - SE 15 19 8 10 - - -
22/08:30pm - - - - - SSE 20 30 11 16 - - -
22/08:00pm - - - - - SSE 22 28 12 15 - - -
22/07:30pm - - - - - SSE 20 28 11 15 - - -
22/07:00pm - - - - - S 32 41 17 22 - - -
22/06:30pm - - - - - S 33 41 18 22 - - -
22/06:00pm - - - - - S 35 43 19 23 - - -
22/05:30pm - - - - - S 37 44 20 24 - - -
22/05:00pm - - - - - S 37 44 20 24 - - -
22/04:30pm - - - - - SSW 37 48 20 26 - - -
22/04:00pm - - - - - SSW 37 44 20 24 - - -
22/03:30pm - - - - - SSW 39 48 21 26 - - -
22/03:00pm - - - - - SSW 37 48 20 26 - - -
22/02:30pm - - - - - SSW 35 46 19 25 - - -
22/02:00pm - - - - - SSW 35 43 19 23 - - -
22/01:30pm - - - - - S 37 50 20 27 - - -
22/01:00pm - - - - - S 39 48 21 26 - - -
22/12:30pm - - - - - S 39 48 21 26 - - -
22/12:00pm - - - - - S 37 44 20 24 - - -
22/11:30am - - - - - S 33 43 18 23 - - -
22/11:00am - - - - - S 35 43 19 23 - - -
22/10:30am - - - - - S 33 44 18 24 - - -
22/10:03am - - - - - S 30 50 16 27 - - -
22/10:00am - - - - - S 28 37 15 20 - - -
22/09:30am - - - - - S 28 37 15 20 - - -
22/09:00am - - - - - SSE 30 35 16 19 - - -
22/08:30am - - - - - SSE 22 32 12 17 - - -
22/08:00am - - - - - SSE 19 30 10 16 - - -
22/07:30am - - - - - SE 15 19 8 10 - - -
22/07:00am - - - - - SE 15 19 8 10 - - -
22/06:30am - - - - - SE 19 26 10 14 - - -
22/06:00am - - - - - SE 17 26 9 14 - - -
22/05:30am - - - - - SE 17 24 9 13 - - -
22/05:00am - - - - - SSE 19 26 10 14 - - -
22/04:30am - - - - - SSE 19 26 10 14 - - -
22/04:00am - - - - - SSE 20 28 11 15 - - -
22/03:30am - - - - - SE 20 26 11 14 - - -
22/03:00am - - - - - SSE 19 26 10 14 - - -
22/02:30am - - - - - SSE 24 32 13 17 - - -
22/02:00am - - - - - SSE 20 26 11 14 - - -
22/01:30am - - - - - SSE 17 24 9 13 - - -
22/01:00am - - - - - SE 17 20 9 11 - - -
22/12:30am - - - - - SSE 19 26 10 14 - - -
22/12:00am - - - - - SE 20 28 11 15 - - -
 
Date/Time
WST
Temp
°C
App
Temp
°C
Dew
Point
°C
Rel
Hum
%
Delta-T
°C
Wind Press
QNH
hPa
Press
MSL
hPa
Rain since
9am
mm
Dir  Spd
km/h
Gust
km/h
Spd
kts
Gust
kts
21/11:30pm - - - - - SSE 19 28 10 15 - - -
21/11:00pm - - - - - SSE 22 35 12 19 - - -
21/10:46pm - - - - - SSE 28 46 15 25 - - -
21/10:30pm - - - - - SSE 24 32 13 17 - - -
21/10:15pm - - - - - S 43 63 23 34 - - -
21/10:00pm - - - - - S 32 57 17 31 - - -
21/09:58pm - - - - - SSE 26 56 14 30 - - -
21/09:30pm - - - - - SSE 20 32 11 17 - - -
21/09:14pm - - - - - S 50 89 27 48 - - -
21/09:09pm - - - - - S 61 91 33 49 - - -
21/09:07pm - - - - - SSW 65 91 35 49 - - -
21/09:05pm - - - - - SSW 59 91 32 49 - - -
21/09:00pm - - - - - S 46 74 25 40 - - -
21/08:59pm - - - - - S 44 74 24 40 - - -
21/08:30pm - - - - - SSW 54 67 29 36 - - -
21/08:00pm - - - - - SSW 50 72 27 39 - - -
21/07:55pm - - - - - SSW 43 67 23 36 - - -
21/07:30pm - - - - - SSW 48 57 26 31 - - -
21/07:10pm - - - - - SW 32 50 17 27 - - -
21/07:00pm - - - - - SW 33 41 18 22 - - -
21/06:43pm - - - - - WSW 28 56 15 30 - - -
21/06:40pm - - - - - WSW 20 48 11 26 - - -
21/06:30pm - - - - - SW 15 20 8 11 - - -
21/06:00pm - - - - - WSW 26 32 14 17 - - -
21/05:30pm - - - - - WSW 28 32 15 17 - - -
21/05:00pm - - - - - WSW 44 56 24 30 - - -
21/04:30pm - - - - - W 43 56 23 30 - - -
21/04:24pm - - - - - WNW 35 43 19 23 - - -
21/04:00pm - - - - - NW 33 39 18 21 - - -
21/03:30pm - - - - - NW 35 43 19 23 - - -
21/03:00pm - - - - - NW 32 39 17 21 - - -
21/02:30pm - - - - - NW 28 37 15 20 - - -
21/02:00pm - - - - - NW 28 33 15 18 - - -
21/01:30pm - - - - - NW 28 32 15 17 - - -
21/01:00pm - - - - - NW 30 33 16 18 - - -
21/12:30pm - - - - - WNW 37 44 20 24 - - -
21/12:00pm - - - - - NW 39 46 21 25 - - -
21/11:48am - - - - - WNW 39 54 21 29 - - -
21/11:30am - - - - - NW 28 35 15 19 - - -
21/11:00am - - - - - NW 26 30 14 16 - - -
21/10:30am - - - - - NNW 24 32 13 17 - - -
21/10:00am - - - - - NNW 13 26 7 14 - - -
21/09:30am - - - - - ENE 9 13 5 7 - - -
21/09:00am - - - - - ESE 13 20 7 11 - - -
21/08:30am - - - - - S 9 17 5 9 - - -
21/08:00am - - - - - ENE 15 22 8 12 - - -
21/07:30am - - - - - NNE 11 17 6 9 - - -
21/07:00am - - - - - NNE 13 20 7 11 - - -
21/06:30am - - - - - NNE 15 19 8 10 - - -
21/06:00am - - - - - NE 11 15 6 8 - - -
21/05:30am - - - - - NNE 11 13 6 7 - - -

Other Formats:

Comma delimited format used in spreadsheet applications
http://www.bom.gov.au/fwo/IDW60801/IDW60801.94607.axf

JavaScript Object Notation format (JSON) in row-major order
http://www.bom.gov.au/fwo/IDW60801/IDW60801.94607.json